Time;durP1;ratioP1;P1;durP2;ratioP2;P2;SDS_P1;SDS_P2;PMS_P1;PMS_P2;Temp;Humidity;BMP_temperature;BMP_pressure;BME280_temperature;BME280_humidity;BME280_pressure;Samples;Min_cycle;Max_cycle;Signal;HPM_P1;HPM_P2
2020/12/05 00:05:24;;;;;;;221.45;131.57;;;;;;;;;;4375653;28;20101;-59
2020/12/05 00:07:50;;;;;;;210.70;128.32;;;;;;;;;;4259428;33;20111;-60
2020/12/05 00:10:16;;;;;;;199.90;124.12;;;;;;;;;;4235182;33;20117;-60
2020/12/05 00:12:42;;;;;;;181.02;119.72;;;;;;;;;;4236989;33;20109;-59
2020/12/05 00:15:08;;;;;;;176.77;116.18;;;;;;;;;;4247153;33;20108;-59
2020/12/05 00:17:34;;;;;;;173.62;115.53;;;;;;;;;;4246976;33;20120;-59
2020/12/05 00:19:59;;;;;;;170.73;110.07;;;;;;;;;;4246504;33;20508;-59
2020/12/05 00:22:25;;;;;;;171.48;111.22;;;;;;;;;;4236030;33;20135;-58
2020/12/05 00:24:51;;;;;;;161.50;105.57;;;;;;;;;;4219856;33;20610;-58
2020/12/05 00:27:20;;;;;;;159.18;104.60;;;;;;;;;;4232853;33;20524;-59
2020/12/05 00:29:49;;;;;;;170.95;108.70;;;;;;;;;;4232734;33;20120;-58
2020/12/05 00:32:15;;;;;;;165.98;107.37;;;;;;;;;;4233119;33;20112;-58
2020/12/05 00:34:42;;;;;;;177.87;112.05;;;;;;;;;;4232700;33;20199;-59
2020/12/05 00:37:07;;;;;;;173.62;110.75;;;;;;;;;;4232821;33;20557;-58
2020/12/05 00:39:33;;;;;;;163.07;105.85;;;;;;;;;;4243856;33;20196;-56
2020/12/05 00:41:59;;;;;;;171.50;108.37;;;;;;;;;;4246781;33;20119;-57
2020/12/05 00:44:25;;;;;;;180.52;112.20;;;;;;;;;;4246694;33;20112;-59
2020/12/05 00:46:51;;;;;;;175.85;106.07;;;;;;;;;;4246756;33;20619;-57
2020/12/05 00:49:17;;;;;;;183.90;110.10;;;;;;;;;;4246717;33;20207;-56
2020/12/05 00:51:47;;;;;;;190.20;112.82;;;;;;;;;;4246715;33;20140;-56
2020/12/05 00:54:13;;;;;;;212.12;120.00;;;;;;;;;;4246667;33;20522;-57
2020/12/05 00:56:39;;;;;;;223.38;123.22;;;;;;;;;;4233510;33;20109;-56
2020/12/05 00:59:05;;;;;;;221.00;124.57;;;;;;;;;;4246677;33;20116;-57
2020/12/05 01:01:30;;;;;;;199.43;114.85;;;;;;;;;;4246697;33;20096;-57
2020/12/05 01:03:56;;;;;;;203.35;122.30;;;;;;;;;;4246331;33;20135;-57
2020/12/05 01:06:22;;;;;;;193.77;118.40;;;;;;;;;;4246527;33;20208;-56
2020/12/05 01:08:48;;;;;;;184.48;111.40;;;;;;;;;;4246424;33;20124;-57
2020/12/05 01:11:18;;;;;;;198.15;121.40;;;;;;;;;;4246754;33;20126;-57
2020/12/05 01:13:45;;;;;;;206.10;123.60;;;;;;;;;;4246651;33;20116;-57
2020/12/05 01:16:12;;;;;;;207.07;128.68;;;;;;;;;;4246434;33;20117;-58
2020/12/05 01:18:38;;;;;;;218.68;130.18;;;;;;;;;;4246389;33;20207;-58
2020/12/05 01:21:07;;;;;;;242.45;142.80;;;;;;;;;;4246673;33;20113;-58
2020/12/05 01:23:33;;;;;;;253.77;144.30;;;;;;;;;;4246251;33;20100;-58
2020/12/05 01:25:59;;;;;;;227.15;136.02;;;;;;;;;;4233320;33;20213;-58
2020/12/05 01:28:24;;;;;;;223.38;136.00;;;;;;;;;;4246486;33;20104;-57
2020/12/05 01:30:50;;;;;;;212.10;135.12;;;;;;;;;;4246624;33;20128;-57
2020/12/05 01:33:16;;;;;;;232.48;144.57;;;;;;;;;;4247584;33;20215;-58
2020/12/05 01:35:42;;;;;;;218.30;137.70;;;;;;;;;;4248319;33;20113;-58
2020/12/05 01:38:08;;;;;;;242.00;147.27;;;;;;;;;;4248461;33;20173;-58
2020/12/05 01:40:34;;;;;;;187.05;126.80;;;;;;;;;;4235818;33;20215;-57
2020/12/05 01:43:00;;;;;;;226.90;143.65;;;;;;;;;;4234225;33;20124;-58
2020/12/05 01:45:25;;;;;;;233.95;144.40;;;;;;;;;;4234092;33;20097;-58
2020/12/05 01:47:51;;;;;;;197.15;130.57;;;;;;;;;;4234167;33;20464;-58
2020/12/05 01:50:17;;;;;;;283.58;160.23;;;;;;;;;;4221083;33;20477;-58
2020/12/05 01:52:43;;;;;;;309.42;163.50;;;;;;;;;;4221154;33;20521;-57
2020/12/05 01:55:09;;;;;;;308.58;168.05;;;;;;;;;;4221099;33;20202;-58
2020/12/05 01:57:35;;;;;;;289.75;161.52;;;;;;;;;;4234347;33;20120;-58
2020/12/05 02:00:01;;;;;;;314.55;167.48;;;;;;;;;;4234054;33;20304;-58
2020/12/05 02:02:27;;;;;;;294.37;163.25;;;;;;;;;;4234101;33;20100;-57
2020/12/05 02:05:11;;;;;;;313.08;167.73;;;;;;;;;;4220956;33;20180;-57
2020/12/05 02:07:47;;;;;;;311.90;170.20;;;;;;;;;;4234145;33;20108;-58
2020/12/05 02:10:17;;;;;;;319.40;169.13;;;;;;;;;;4221193;33;20108;-58
2020/12/05 02:12:52;;;;;;;328.48;177.62;;;;;;;;;;4221221;33;20541;-58
2020/12/05 02:15:28;;;;;;;;;;;;;;;;;;4234344;33;20128;-58
2020/12/05 02:17:59;;;;;;;289.98;159.05;;;;;;;;;;4221185;33;19981;-58
2020/12/05 02:20:28;;;;;;;277.27;152.23;;;;;;;;;;4234058;33;20144;-58
2020/12/05 02:22:54;;;;;;;256.83;145.52;;;;;;;;;;4233947;33;20124;-57
2020/12/05 02:25:20;;;;;;;286.37;155.77;;;;;;;;;;4220666;33;20535;-58
2020/12/05 02:27:45;;;;;;;322.02;166.10;;;;;;;;;;4221150;33;20112;-58
2020/12/05 02:30:11;;;;;;;316.33;165.30;;;;;;;;;;4220695;33;20231;-59
2020/12/05 02:32:37;;;;;;;327.25;172.82;;;;;;;;;;4220885;33;20743;-58
2020/12/05 02:35:04;;;;;;;331.48;169.52;;;;;;;;;;4233908;33;20505;-59
2020/12/05 02:37:30;;;;;;;336.05;173.60;;;;;;;;;;4233827;33;20135;-58
2020/12/05 02:39:56;;;;;;;349.40;171.62;;;;;;;;;;4220865;33;20128;-58
2020/12/05 02:42:22;;;;;;;347.80;173.30;;;;;;;;;;4220723;33;20551;-58
2020/12/05 02:44:52;;;;;;;360.25;178.35;;;;;;;;;;4233381;33;20219;-58
2020/12/05 02:47:19;;;;;;;351.88;173.07;;;;;;;;;;4233996;33;20462;-58
2020/12/05 02:49:45;;;;;;;368.08;177.12;;;;;;;;;;4233761;33;20108;-58
2020/12/05 02:52:11;;;;;;;379.65;179.70;;;;;;;;;;4233904;33;20120;-58
2020/12/05 02:54:37;;;;;;;382.70;178.43;;;;;;;;;;4233653;33;20101;-58
2020/12/05 02:57:03;;;;;;;390.10;181.87;;;;;;;;;;4233586;33;20098;-58
2020/12/05 02:59:29;;;;;;;375.73;178.38;;;;;;;;;;4220277;33;20521;-58
2020/12/05 03:01:55;;;;;;;371.80;168.25;;;;;;;;;;4233438;33;20517;-58
2020/12/05 03:04:21;;;;;;;357.73;164.80;;;;;;;;;;4233251;33;20105;-58
2020/12/05 03:06:47;;;;;;;371.67;172.27;;;;;;;;;;4230048;33;20109;-58
2020/12/05 03:09:13;;;;;;;363.95;168.80;;;;;;;;;;4247396;33;20101;-59
2020/12/05 03:11:39;;;;;;;373.08;175.65;;;;;;;;;;4247850;33;20459;-58
2020/12/05 03:14:05;;;;;;;388.92;187.82;;;;;;;;;;4247431;33;20160;-58
2020/12/05 03:16:31;;;;;;;391.58;183.73;;;;;;;;;;4247553;33;20196;-58
2020/12/05 03:18:57;;;;;;;367.80;171.85;;;;;;;;;;4247758;33;20135;-58
2020/12/05 03:21:23;;;;;;;360.83;173.15;;;;;;;;;;4247465;33;20562;-57
2020/12/05 03:23:49;;;;;;;365.17;171.45;;;;;;;;;;4247386;33;20144;-56
2020/12/05 03:26:15;;;;;;;338.70;154.00;;;;;;;;;;4247546;33;20097;-56
2020/12/05 03:28:41;;;;;;;335.92;154.70;;;;;;;;;;4247459;33;20199;-56
2020/12/05 03:31:08;;;;;;;328.67;158.30;;;;;;;;;;4247493;33;20095;-52
2020/12/05 03:33:36;;;;;;;331.65;157.88;;;;;;;;;;4247215;33;20133;-51
2020/12/05 03:36:02;;;;;;;335.38;158.05;;;;;;;;;;4247405;33;20121;-51
2020/12/05 03:38:28;;;;;;;315.20;153.00;;;;;;;;;;4247249;33;20128;-49
2020/12/05 03:40:54;;;;;;;317.40;152.87;;;;;;;;;;4247665;33;20124;-50
2020/12/05 03:43:20;;;;;;;331.38;157.95;;;;;;;;;;4247474;33;20570;-48
2020/12/05 03:45:46;;;;;;;319.45;154.27;;;;;;;;;;4247265;33;20448;-47
2020/12/05 03:48:12;;;;;;;314.85;150.62;;;;;;;;;;4245842;33;20443;-52
2020/12/05 03:50:39;;;;;;;320.10;151.02;;;;;;;;;;4247186;33;20099;-47
2020/12/05 03:53:05;;;;;;;321.02;154.82;;;;;;;;;;4247325;33;20119;-48
2020/12/05 03:55:31;;;;;;;316.75;148.30;;;;;;;;;;4246308;33;20185;-49
2020/12/05 03:57:56;;;;;;;313.15;148.15;;;;;;;;;;4247145;33;20104;-56
2020/12/05 04:00:22;;;;;;;320.20;152.62;;;;;;;;;;4247335;33;20085;-51
2020/12/05 04:02:48;;;;;;;337.12;157.43;;;;;;;;;;4247059;33;20128;-54
2020/12/05 04:05:14;;;;;;;350.58;160.10;;;;;;;;;;4246992;33;20124;-53
2020/12/05 04:07:40;;;;;;;351.45;163.73;;;;;;;;;;4247117;33;20222;-55
2020/12/05 04:10:06;;;;;;;365.73;169.95;;;;;;;;;;4247181;33;20317;-54
2020/12/05 04:12:32;;;;;;;374.55;179.18;;;;;;;;;;4242974;33;20093;-48
2020/12/05 04:14:58;;;;;;;369.23;176.57;;;;;;;;;;4246841;33;20131;-51
2020/12/05 04:17:24;;;;;;;354.42;169.40;;;;;;;;;;4247236;33;20496;-52
2020/12/05 04:19:50;;;;;;;330.75;164.68;;;;;;;;;;4247108;33;20097;-48
2020/12/05 04:22:15;;;;;;;325.62;164.13;;;;;;;;;;4247194;33;20121;-61
2020/12/05 04:24:41;;;;;;;334.10;165.93;;;;;;;;;;4246956;33;20200;-53
2020/12/05 04:27:07;;;;;;;344.92;169.20;;;;;;;;;;4246989;33;20112;-56
2020/12/05 04:29:33;;;;;;;352.35;177.45;;;;;;;;;;4246778;33;20112;-52
2020/12/05 04:31:59;;;;;;;352.30;172.27;;;;;;;;;;4247087;33;20119;-55
2020/12/05 04:34:25;;;;;;;350.05;167.70;;;;;;;;;;4246887;33;20441;-48
2020/12/05 04:36:50;;;;;;;337.70;167.48;;;;;;;;;;4247118;33;20084;-51
2020/12/05 04:39:16;;;;;;;335.75;170.32;;;;;;;;;;4246783;33;20138;-49
2020/12/05 04:41:42;;;;;;;341.80;169.43;;;;;;;;;;4246888;33;20141;-52
2020/12/05 04:44:11;;;;;;;337.77;169.95;;;;;;;;;;4246664;33;20140;-50
2020/12/05 04:46:37;;;;;;;341.70;170.77;;;;;;;;;;4246996;33;20469;-50
2020/12/05 04:49:03;;;;;;;347.45;172.32;;;;;;;;;;4246715;33;20535;-53
2020/12/05 04:51:38;;;;;;;347.88;176.12;;;;;;;;;;4246754;33;20127;-50
2020/12/05 04:54:07;;;;;;;330.27;170.23;;;;;;;;;;4246580;33;20113;-49
2020/12/05 04:56:39;;;;;;;333.65;167.35;;;;;;;;;;4246672;33;20179;-53
2020/12/05 04:59:07;;;;;;;332.37;171.82;;;;;;;;;;4233809;33;20521;-51
2020/12/05 05:01:35;;;;;;;338.00;187.88;;;;;;;;;;4246762;33;20192;-53
2020/12/05 05:04:01;;;;;;;330.33;170.02;;;;;;;;;;4246258;33;20144;-50
2020/12/05 05:06:27;;;;;;;339.73;174.35;;;;;;;;;;4246312;33;20195;-52
2020/12/05 05:08:53;;;;;;;341.00;174.85;;;;;;;;;;4240297;33;20468;-53
2020/12/05 05:11:19;;;;;;;349.27;173.60;;;;;;;;;;4251360;33;20166;-53
2020/12/05 05:13:57;;;;;;;347.20;186.70;;;;;;;;;;4259356;33;20269;-49
2020/12/05 05:16:26;;;;;;;348.85;193.52;;;;;;;;;;4260333;33;20118;-52
2020/12/05 05:18:52;;;;;;;343.50;191.50;;;;;;;;;;4260104;33;20100;-52
2020/12/05 05:21:35;;;;;;;341.30;192.30;;;;;;;;;;4247279;33;20102;-51
2020/12/05 05:24:01;;;;;;;325.25;190.50;;;;;;;;;;4258727;33;20176;-56
2020/12/05 05:26:29;;;;;;;307.55;180.45;;;;;;;;;;4247218;33;20104;-57
2020/12/05 05:28:55;;;;;;;327.08;192.55;;;;;;;;;;4260074;33;20096;-56
2020/12/05 05:31:28;;;;;;;309.10;176.15;;;;;;;;;;4260266;33;20270;-53
2020/12/05 05:33:54;;;;;;;302.40;175.52;;;;;;;;;;4259922;33;20576;-58
2020/12/05 05:36:28;;;;;;;303.65;174.80;;;;;;;;;;4259915;33;20155;-59
2020/12/05 05:39:05;;;;;;;290.48;166.23;;;;;;;;;;4259702;33;20210;-58
2020/12/05 05:41:32;;;;;;;304.05;176.50;;;;;;;;;;4260426;33;20118;-57
2020/12/05 05:44:05;;;;;;;277.62;173.62;;;;;;;;;;4254620;33;20108;-58
2020/12/05 05:46:35;;;;;;;279.98;172.25;;;;;;;;;;4247080;33;20203;-59
2020/12/05 05:49:02;;;;;;;274.88;175.20;;;;;;;;;;4246978;33;20471;-62
2020/12/05 05:51:38;;;;;;;272.00;169.43;;;;;;;;;;4230526;33;20104;-57
2020/12/05 05:54:10;;;;;;;;;;;;;;;;;;4244051;33;20619;-57
2020/12/05 05:56:36;;;;;;;280.95;175.95;;;;;;;;;;4243769;33;19985;-57
2020/12/05 05:59:03;;;;;;;288.65;179.35;;;;;;;;;;4243723;33;20125;-57
2020/12/05 06:01:29;;;;;;;285.83;178.18;;;;;;;;;;4219740;33;20485;-56
2020/12/05 06:03:55;;;;;;;266.33;175.95;;;;;;;;;;4231616;33;20097;-58
2020/12/05 06:06:21;;;;;;;249.48;166.12;;;;;;;;;;4221008;33;20093;-57
2020/12/05 06:08:46;;;;;;;257.00;168.57;;;;;;;;;;4220140;33;20128;-57
2020/12/05 06:11:12;;;;;;;251.65;168.57;;;;;;;;;;4221083;33;20124;-57
2020/12/05 06:13:39;;;;;;;234.82;157.32;;;;;;;;;;4220893;33;20132;-57
2020/12/05 06:16:05;;;;;;;223.77;149.52;;;;;;;;;;4221355;33;20127;-57
2020/12/05 06:18:31;;;;;;;227.80;151.20;;;;;;;;;;4246517;33;20204;-58
2020/12/05 06:20:57;;;;;;;221.75;142.00;;;;;;;;;;4247985;33;20135;-59
2020/12/05 06:23:30;;;;;;;217.00;137.00;;;;;;;;;;4246405;33;20132;-58
2020/12/05 06:25:56;;;;;;;232.52;147.98;;;;;;;;;;4235121;33;20097;-57
2020/12/05 06:28:22;;;;;;;210.25;135.55;;;;;;;;;;4234943;33;20124;-58
2020/12/05 06:30:48;;;;;;;206.98;138.68;;;;;;;;;;4234896;33;20112;-60
2020/12/05 06:33:40;;;;;;;199.50;133.15;;;;;;;;;;4247855;33;20120;-60
2020/12/05 06:36:28;;;;;;;204.68;135.23;;;;;;;;;;4230959;33;20453;-58
2020/12/05 06:39:18;;;;;;;190.95;127.47;;;;;;;;;;4247774;33;20136;-58
2020/12/05 06:41:49;;;;;;;164.85;110.88;;;;;;;;;;4247959;33;20104;-60
2020/12/05 06:44:21;;;;;;;156.95;106.45;;;;;;;;;;4247613;33;20282;-61
2020/12/05 06:46:58;;;;;;;157.62;109.30;;;;;;;;;;4247841;33;20529;-59
2020/12/05 06:49:38;;;;;;;162.55;111.37;;;;;;;;;;4247903;33;20109;-59
2020/12/05 06:52:22;;;;;;;171.10;115.65;;;;;;;;;;4247947;33;20101;-58
2020/12/05 06:55:13;;;;;;;155.27;107.00;;;;;;;;;;4247520;33;20189;-59
2020/12/05 06:57:39;;;;;;;142.27;99.62;;;;;;;;;;4247943;33;20184;-59
2020/12/05 07:00:20;;;;;;;144.37;101.22;;;;;;;;;;4247493;33;20120;-56
2020/12/05 07:02:58;;;;;;;149.60;101.57;;;;;;;;;;4248014;33;20216;-56
2020/12/05 07:05:46;;;;;;;130.30;95.72;;;;;;;;;;4247496;33;20116;-55
2020/12/05 07:08:25;;;;;;;143.80;101.53;;;;;;;;;;4247866;33;20143;-58
2020/12/05 07:10:59;;;;;;;140.27;95.10;;;;;;;;;;4247581;33;20201;-56
2020/12/05 07:13:27;;;;;;;133.87;95.05;;;;;;;;;;4247688;33;20140;-58
2020/12/05 07:16:21;;;;;;;139.95;96.22;;;;;;;;;;4247526;33;20124;-58
2020/12/05 07:18:52;;;;;;;135.20;95.43;;;;;;;;;;4247202;33;20136;-58
2020/12/05 07:21:18;;;;;;;128.85;92.70;;;;;;;;;;4247556;33;20180;-56
2020/12/05 07:23:44;;;;;;;126.85;93.35;;;;;;;;;;4247631;33;20451;-64
2020/12/05 07:26:11;;;;;;;133.57;92.88;;;;;;;;;;4247701;33;20111;-59
2020/12/05 07:28:37;;;;;;;134.20;95.40;;;;;;;;;;4247380;33;20120;-58
2020/12/05 07:31:03;;;;;;;133.90;96.40;;;;;;;;;;4234402;33;20451;-60
2020/12/05 07:33:29;;;;;;;134.63;96.18;;;;;;;;;;4234139;33;20108;-61
2020/12/05 07:36:03;;;;;;;130.73;96.47;;;;;;;;;;4234401;33;20442;-66
2020/12/05 07:38:29;;;;;;;133.73;94.37;;;;;;;;;;4247418;33;20120;-58
2020/12/05 07:40:56;;;;;;;132.73;92.75;;;;;;;;;;4247168;33;20120;-58
2020/12/05 07:43:22;;;;;;;138.12;97.82;;;;;;;;;;4247059;33;20104;-50
2020/12/05 07:45:49;;;;;;;135.85;97.45;;;;;;;;;;4246033;33;20171;-58
2020/12/05 07:48:16;;;;;;;130.93;93.28;;;;;;;;;;4247220;33;20111;-58
2020/12/05 07:50:42;;;;;;;131.23;91.80;;;;;;;;;;4247445;33;20219;-59
2020/12/05 07:53:39;;;;;;;132.23;91.28;;;;;;;;;;4247223;33;20124;-59
2020/12/05 07:56:15;;;;;;;127.60;88.95;;;;;;;;;;4246128;33;20125;-63
2020/12/05 07:58:45;;;;;;;125.30;88.12;;;;;;;;;;4247198;33;20555;-59
2020/12/05 08:01:31;;;;;;;116.07;78.87;;;;;;;;;;4247208;33;20661;-59
2020/12/05 08:04:08;;;;;;;132.05;89.28;;;;;;;;;;4235843;33;20104;-61
2020/12/05 08:06:40;;;;;;;137.27;93.95;;;;;;;;;;4246967;33;20123;-61
2020/12/05 08:09:06;;;;;;;126.55;91.50;;;;;;;;;;4233868;33;20124;-62
2020/12/05 08:11:38;;;;;;;122.18;87.12;;;;;;;;;;4234005;33;20123;-62
2020/12/05 08:14:05;;;;;;;121.78;85.93;;;;;;;;;;4218863;33;20151;-61
2020/12/05 08:16:37;;;;;;;119.05;87.90;;;;;;;;;;4240288;33;20180;-56
2020/12/05 08:19:03;;;;;;;120.00;86.82;;;;;;;;;;4241551;33;20199;-58
2020/12/05 08:21:29;;;;;;;116.68;82.78;;;;;;;;;;4234096;33;20284;-61
2020/12/05 08:24:05;;;;;;;116.43;82.20;;;;;;;;;;4222092;33;20133;-61
2020/12/05 08:26:31;;;;;;;119.37;85.85;;;;;;;;;;4247055;33;20124;-59
2020/12/05 08:28:56;;;;;;;118.03;85.03;;;;;;;;;;4246817;33;20548;-60
2020/12/05 08:31:22;;;;;;;110.55;80.35;;;;;;;;;;4221686;33;20311;-60
2020/12/05 08:33:49;;;;;;;106.22;77.80;;;;;;;;;;4232896;33;20089;-58
2020/12/05 08:36:20;;;;;;;106.50;77.45;;;;;;;;;;4247618;33;20215;-56
2020/12/05 08:38:46;;;;;;;100.03;74.15;;;;;;;;;;4246584;33;20127;-60
2020/12/05 08:41:12;;;;;;;109.85;76.60;;;;;;;;;;4246252;33;20136;-59
2020/12/05 08:43:38;;;;;;;107.93;80.30;;;;;;;;;;4233378;33;20116;-59
2020/12/05 08:46:21;;;;;;;108.72;84.30;;;;;;;;;;4233641;33;20109;-59
2020/12/05 08:48:48;;;;;;;111.35;84.43;;;;;;;;;;4246575;33;20524;-58
2020/12/05 08:51:15;;;;;;;117.85;90.00;;;;;;;;;;4246428;33;20100;-58
2020/12/05 08:53:41;;;;;;;121.40;90.90;;;;;;;;;;4246453;33;20236;-59
2020/12/05 08:56:07;;;;;;;122.80;92.15;;;;;;;;;;4246548;33;20548;-56
2020/12/05 08:58:46;;;;;;;121.28;93.35;;;;;;;;;;4246607;33;20136;-59
2020/12/05 09:01:15;;;;;;;132.52;96.47;;;;;;;;;;4245634;33;20218;-59
2020/12/05 09:03:41;;;;;;;125.55;98.00;;;;;;;;;;4245172;33;20158;-58
2020/12/05 09:06:08;;;;;;;128.90;98.72;;;;;;;;;;4246828;33;20192;-58
2020/12/05 09:08:34;;;;;;;147.55;100.75;;;;;;;;;;4246237;33;20525;-60
2020/12/05 09:11:00;;;;;;;138.35;106.20;;;;;;;;;;4246552;33;20140;-58
2020/12/05 09:13:26;;;;;;;141.68;104.97;;;;;;;;;;4246617;33;20568;-57
2020/12/05 09:15:53;;;;;;;148.30;111.18;;;;;;;;;;4246358;33;20112;-58
2020/12/05 09:18:19;;;;;;;181.57;123.72;;;;;;;;;;4246366;33;20105;-57
2020/12/05 09:20:45;;;;;;;184.02;123.57;;;;;;;;;;4246502;33;20523;-58
2020/12/05 09:23:11;;;;;;;207.75;128.98;;;;;;;;;;4246230;33;20188;-58
2020/12/05 09:25:38;;;;;;;215.00;134.65;;;;;;;;;;4246154;33;20529;-59
2020/12/05 09:28:09;;;;;;;207.60;133.68;;;;;;;;;;4246073;33;20105;-60
2020/12/05 09:30:35;;;;;;;213.82;138.00;;;;;;;;;;4246182;33;20222;-59
2020/12/05 09:33:10;;;;;;;221.50;140.73;;;;;;;;;;4233254;33;20136;-60
2020/12/05 09:35:36;;;;;;;266.60;158.23;;;;;;;;;;4246331;33;20196;-59
2020/12/05 09:38:02;;;;;;;277.08;161.32;;;;;;;;;;4246089;33;20097;-60
2020/12/05 09:40:28;;;;;;;275.90;163.00;;;;;;;;;;4233190;33;20520;-58
2020/12/05 09:42:55;;;;;;;262.63;157.10;;;;;;;;;;4246179;33;20127;-60
2020/12/05 09:45:21;;;;;;;246.93;151.45;;;;;;;;;;4245940;33;20100;-61
2020/12/05 09:47:47;;;;;;;234.18;144.87;;;;;;;;;;4245965;33;20193;-59
2020/12/05 09:50:14;;;;;;;216.80;134.27;;;;;;;;;;4244532;33;20082;-58
2020/12/05 09:52:41;;;;;;;194.00;123.35;;;;;;;;;;4246111;33;20542;-59
2020/12/05 09:55:07;;;;;;;170.07;116.65;;;;;;;;;;4248043;33;20100;-57
2020/12/05 09:57:33;;;;;;;158.63;106.35;;;;;;;;;;4248198;33;20516;-59
2020/12/05 09:59:59;;;;;;;139.93;95.10;;;;;;;;;;4235229;33;20127;-58
2020/12/05 10:02:25;;;;;;;108.43;78.35;;;;;;;;;;4246692;33;20532;-59
2020/12/05 10:04:51;;;;;;;121.47;89.10;;;;;;;;;;4247895;33;20161;-59
2020/12/05 10:07:17;;;;;;;91.87;67.75;;;;;;;;;;4248035;33;20108;-59
2020/12/05 10:09:43;;;;;;;73.05;57.17;;;;;;;;;;4248238;33;20154;-58
2020/12/05 10:12:09;;;;;;;72.07;53.90;;;;;;;;;;4248179;33;20203;-58
2020/12/05 10:14:35;;;;;;;72.50;53.87;;;;;;;;;;4248164;33;20116;-58
2020/12/05 10:17:00;;;;;;;78.60;53.92;;;;;;;;;;4248446;33;20177;-58
2020/12/05 10:19:27;;;;;;;91.32;64.47;;;;;;;;;;4247761;33;20143;-58
2020/12/05 10:21:53;;;;;;;92.28;71.97;;;;;;;;;;4248023;33;20116;-57
2020/12/05 10:24:19;;;;;;;110.28;82.65;;;;;;;;;;4247672;33;20467;-57
2020/12/05 10:26:53;;;;;;;106.10;78.30;;;;;;;;;;4248123;33;20127;-57
2020/12/05 10:29:25;;;;;;;95.80;74.68;;;;;;;;;;4247774;33;20120;-57
2020/12/05 10:31:52;;;;;;;93.15;73.93;;;;;;;;;;4248000;33;20132;-58
2020/12/05 10:34:18;;;;;;;89.43;71.97;;;;;;;;;;4247667;33;20519;-57
2020/12/05 10:36:44;;;;;;;92.57;72.90;;;;;;;;;;4234750;33;20116;-59
2020/12/05 10:39:10;;;;;;;97.75;74.80;;;;;;;;;;4247794;33;20117;-59
2020/12/05 10:41:37;;;;;;;92.18;72.10;;;;;;;;;;4247832;33;20108;-58
2020/12/05 10:44:04;;;;;;;91.93;71.18;;;;;;;;;;4247714;33;20203;-57
2020/12/05 10:46:30;;;;;;;93.00;71.30;;;;;;;;;;4247935;33;20117;-58
2020/12/05 10:48:56;;;;;;;85.65;66.12;;;;;;;;;;4247956;33;20133;-57
2020/12/05 10:51:21;;;;;;;76.60;61.45;;;;;;;;;;4247739;33;20615;-54
2020/12/05 10:53:47;;;;;;;83.80;61.47;;;;;;;;;;4247152;33;20132;-59
2020/12/05 10:56:13;;;;;;;76.43;59.90;;;;;;;;;;4247263;33;20204;-55
2020/12/05 10:58:39;;;;;;;66.75;53.22;;;;;;;;;;4253947;33;20099;-57
2020/12/05 11:01:05;;;;;;;66.35;51.80;;;;;;;;;;4247613;33;20602;-57
2020/12/05 11:03:31;;;;;;;60.95;48.55;;;;;;;;;;4222862;33;20194;-55
2020/12/05 11:05:57;;;;;;;63.50;49.75;;;;;;;;;;4244621;33;20215;-52
2020/12/05 11:08:23;;;;;;;61.53;49.10;;;;;;;;;;4234371;33;20164;-56
2020/12/05 13:09:54;;;;;;;72.65;54.67;;;;;;;;;;4619815;28;20195;-52
2020/12/05 13:12:20;;;;;;;71.90;53.78;;;;;;;;;;4255922;33;20195;-51
2020/12/05 13:14:46;;;;;;;71.40;57.67;;;;;;;;;;4242646;33;20140;-53
2020/12/05 13:17:12;;;;;;;53.20;41.58;;;;;;;;;;4232514;33;20109;-54
2020/12/05 13:19:38;;;;;;;41.75;36.00;;;;;;;;;;4246623;33;20128;-54
2020/12/05 13:22:03;;;;;;;46.13;38.53;;;;;;;;;;4246521;33;20109;-52
2020/12/05 13:24:29;;;;;;;51.70;42.85;;;;;;;;;;4246393;33;20143;-54
2020/12/05 13:26:55;;;;;;;61.85;50.72;;;;;;;;;;4239821;33;20556;-55
2020/12/05 13:29:21;;;;;;;74.12;58.97;;;;;;;;;;4237095;33;20113;-54
2020/12/05 13:31:47;;;;;;;80.78;65.25;;;;;;;;;;4237204;33;20128;-55
2020/12/05 13:34:13;;;;;;;77.70;68.20;;;;;;;;;;4237192;33;20140;-55
2020/12/05 13:36:42;;;;;;;87.53;69.97;;;;;;;;;;4236923;33;20096;-57
2020/12/05 13:39:08;;;;;;;74.37;60.58;;;;;;;;;;4236809;33;20156;-56
2020/12/05 13:41:34;;;;;;;60.30;47.83;;;;;;;;;;4236369;33;20117;-53
2020/12/05 13:44:00;;;;;;;53.75;47.85;;;;;;;;;;4243586;33;20125;-57
2020/12/05 13:46:27;;;;;;;73.20;64.72;;;;;;;;;;4250901;33;20606;-53
2020/12/05 13:48:53;;;;;;;113.55;101.28;;;;;;;;;;4251067;33;20124;-58
2020/12/05 13:51:19;;;;;;;77.32;67.57;;;;;;;;;;4251000;33;20208;-58
2020/12/05 13:53:45;;;;;;;64.62;54.72;;;;;;;;;;4250808;33;20137;-62
2020/12/05 13:56:14;;;;;;;65.62;52.58;;;;;;;;;;4250876;33;20274;-56
2020/12/05 13:58:40;;;;;;;62.92;53.80;;;;;;;;;;4250693;33;20128;-55
2020/12/05 14:01:07;;;;;;;63.65;53.47;;;;;;;;;;4237848;33;20188;-57
2020/12/05 14:03:33;;;;;;;65.03;52.50;;;;;;;;;;4250789;33;20128;-50
2020/12/05 14:05:59;;;;;;;67.65;54.38;;;;;;;;;;4250660;33;20127;-49
2020/12/05 14:08:24;;;;;;;60.45;49.28;;;;;;;;;;4250757;33;20411;-58
2020/12/05 14:10:51;;;;;;;57.22;46.08;;;;;;;;;;4250408;33;20456;-58
2020/12/05 14:13:16;;;;;;;55.28;47.92;;;;;;;;;;4243475;33;20140;-57
2020/12/05 14:15:42;;;;;;;60.15;48.67;;;;;;;;;;4248235;33;20524;-54
2020/12/05 14:18:08;;;;;;;55.85;46.28;;;;;;;;;;4250389;33;20143;-57
2020/12/05 14:20:34;;;;;;;47.92;41.72;;;;;;;;;;4250049;33;20119;-50
2020/12/05 14:23:00;;;;;;;54.13;47.35;;;;;;;;;;4250309;33;20125;-50
2020/12/05 14:25:27;;;;;;;56.83;50.60;;;;;;;;;;4250241;33;20157;-56
2020/12/05 14:27:54;;;;;;;60.38;49.85;;;;;;;;;;4250528;33;20211;-55
2020/12/05 14:30:20;;;;;;;60.38;49.30;;;;;;;;;;4237340;33;20125;-51
2020/12/05 14:32:46;;;;;;;90.85;66.47;;;;;;;;;;4250481;33;20125;-52
2020/12/05 14:35:15;;;;;;;75.43;56.65;;;;;;;;;;4250403;33;20123;-54
2020/12/05 14:37:41;;;;;;;61.60;49.47;;;;;;;;;;4250415;33;20098;-54
2020/12/05 14:40:07;;;;;;;69.10;53.78;;;;;;;;;;4234763;33;20184;-55
2020/12/05 14:42:33;;;;;;;73.78;59.50;;;;;;;;;;4247895;33;20149;-56
2020/12/05 14:45:02;;;;;;;70.50;59.17;;;;;;;;;;4247690;33;20539;-59
2020/12/05 14:47:28;;;;;;;72.07;55.35;;;;;;;;;;4247822;33;20136;-61
2020/12/05 14:49:54;;;;;;;70.53;53.95;;;;;;;;;;4247772;33;20125;-57
2020/12/05 14:52:21;;;;;;;65.72;53.03;;;;;;;;;;4234790;33;20116;-53
2020/12/05 14:54:47;;;;;;;66.70;53.30;;;;;;;;;;4247797;33;20147;-56
2020/12/05 14:57:13;;;;;;;74.62;56.50;;;;;;;;;;4248057;33;20156;-58
2020/12/05 14:59:39;;;;;;;81.45;59.80;;;;;;;;;;4247857;33;20132;-58
2020/12/05 15:02:05;;;;;;;89.30;64.32;;;;;;;;;;4247961;33;20107;-57
2020/12/05 15:04:30;;;;;;;92.65;63.55;;;;;;;;;;4247600;33;20096;-55
2020/12/05 15:06:56;;;;;;;98.72;66.60;;;;;;;;;;4247787;33;20206;-58
2020/12/05 15:09:22;;;;;;;104.78;70.43;;;;;;;;;;4247324;33;20508;-57
2020/12/05 15:11:48;;;;;;;103.30;70.70;;;;;;;;;;4247607;33;20109;-55
2020/12/05 15:14:14;;;;;;;99.05;69.50;;;;;;;;;;4247576;33;20135;-56
2020/12/05 15:16:40;;;;;;;96.53;67.45;;;;;;;;;;4247600;33;20456;-56
2020/12/05 15:19:06;;;;;;;96.57;68.22;;;;;;;;;;4247905;33;20101;-58
2020/12/05 15:21:32;;;;;;;93.05;66.45;;;;;;;;;;4247584;33;20113;-55
2020/12/05 15:23:58;;;;;;;103.90;70.05;;;;;;;;;;4247605;33;20111;-56
2020/12/05 15:26:23;;;;;;;98.65;69.62;;;;;;;;;;4247566;33;20108;-57
2020/12/05 15:28:49;;;;;;;91.12;66.45;;;;;;;;;;4247332;33;20129;-57
2020/12/05 15:31:15;;;;;;;99.57;69.65;;;;;;;;;;4247511;33;20100;-57
2020/12/05 15:33:42;;;;;;;95.80;67.25;;;;;;;;;;4247354;33;20125;-56
2020/12/05 15:36:13;;;;;;;87.68;65.90;;;;;;;;;;4247317;33;20241;-55
2020/12/05 15:38:39;;;;;;;92.28;69.00;;;;;;;;;;4247606;33;20105;-56
2020/12/05 15:41:07;;;;;;;87.68;65.12;;;;;;;;;;4247136;33;20116;-58
2020/12/05 15:43:32;;;;;;;90.97;65.87;;;;;;;;;;4222500;33;20136;-57
2020/12/05 15:45:58;;;;;;;89.10;64.97;;;;;;;;;;4222242;33;20133;-54
2020/12/05 15:48:24;;;;;;;98.28;68.53;;;;;;;;;;4234223;33;20536;-54
2020/12/05 15:50:50;;;;;;;89.50;71.15;;;;;;;;;;4246226;33;20196;-54
2020/12/05 15:53:16;;;;;;;90.82;70.62;;;;;;;;;;4247498;33;20172;-54
2020/12/05 15:55:42;;;;;;;87.62;68.30;;;;;;;;;;4247144;33;20117;-54
2020/12/05 15:58:07;;;;;;;82.95;68.15;;;;;;;;;;4247163;33;20214;-54
2020/12/05 16:00:33;;;;;;;99.90;74.72;;;;;;;;;;4247090;33;20128;-54
2020/12/05 16:02:59;;;;;;;92.30;72.82;;;;;;;;;;4247123;33;20107;-53
2020/12/05 16:05:25;;;;;;;97.03;82.50;;;;;;;;;;4247190;33;20101;-52
2020/12/05 16:07:52;;;;;;;100.03;80.50;;;;;;;;;;4247100;33;20121;-54